Time;durP1;ratioP1;P1;durP2;ratioP2;P2;SDS_P1;SDS_P2;PMS_P1;PMS_P2;Temp;Humidity;BMP_temperature;BMP_pressure;BME280_temperature;BME280_humidity;BME280_pressure;Samples;Min_cycle;Max_cycle;Signal;HPM_P1;HPM_P2
2023/12/15 00:00:18;;;;;;;12.00;7.30;;;4.80;99.90;;;;;;4913696;29;20040;-68
2023/12/15 00:02:50;;;;;;;13.07;7.80;;;4.80;99.90;;;;;;4912487;29;20046;-68
2023/12/15 00:05:22;;;;;;;12.27;7.63;;;4.80;99.90;;;;;;4912694;29;20044;-68
2023/12/15 00:07:49;;;;;;;12.98;8.32;;;4.80;99.90;;;;;;4923543;29;20509;-68
2023/12/15 00:10:21;;;;;;;14.48;7.90;;;4.80;99.90;;;;;;4912083;29;20417;-68
2023/12/15 00:12:53;;;;;;;12.93;7.78;;;4.80;99.90;;;;;;4908140;29;20066;-68
2023/12/15 00:15:24;;;;;;;12.63;7.88;;;4.80;99.90;;;;;;4914307;29;20513;-68
2023/12/15 00:17:56;;;;;;;12.55;8.85;;;4.90;99.90;;;;;;4914231;29;20501;-68
2023/12/15 00:20:28;;;;;;;12.50;7.75;;;4.90;99.90;;;;;;4913674;29;20143;-68
2023/12/15 00:23:00;;;;;;;13.45;8.07;;;4.80;99.90;;;;;;4913934;29;20032;-68
2023/12/15 00:25:32;;;;;;;13.95;7.57;;;4.80;99.90;;;;;;4909503;29;20063;-68
2023/12/15 00:28:04;;;;;;;13.65;9.10;;;4.80;99.90;;;;;;4911257;29;20075;-68
2023/12/15 00:30:36;;;;;;;11.27;7.97;;;4.90;99.90;;;;;;4912494;29;20044;-68
2023/12/15 00:33:08;;;;;;;13.10;7.85;;;4.80;99.90;;;;;;4912986;29;20068;-67
2023/12/15 00:35:40;;;;;;;12.40;7.55;;;4.90;99.90;;;;;;4912855;29;20063;-68
2023/12/15 00:38:12;;;;;;;12.32;7.82;;;4.90;99.90;;;;;;4914455;29;20063;-68
2023/12/15 00:40:44;;;;;;;11.85;6.82;;;4.80;99.90;;;;;;4897708;29;20424;-68
2023/12/15 00:43:11;;;;;;;12.13;6.75;;;4.80;99.90;;;;;;4927705;29;20111;-68
2023/12/15 00:45:43;;;;;;;9.65;5.60;;;4.80;99.90;;;;;;4913287;29;20044;-68
2023/12/15 00:48:15;;;;;;;9.30;5.55;;;4.80;99.90;;;;;;4912813;29;20048;-68
2023/12/15 00:50:47;;;;;;;6.88;4.70;;;4.80;99.90;;;;;;4914783;29;20048;-68
2023/12/15 00:53:20;;;;;;;8.88;4.82;;;4.80;99.90;;;;;;4905932;29;20048;-68
2023/12/15 00:55:47;;;;;;;6.72;3.70;;;4.70;99.90;;;;;;4914052;29;20166;-68
2023/12/15 00:58:18;;;;;;;4.82;2.60;;;4.70;99.90;;;;;;4914217;29;20059;-68
2023/12/15 01:00:50;;;;;;;5.68;2.78;;;4.70;99.90;;;;;;4911701;29;20412;-68
2023/12/15 01:03:17;;;;;;;3.67;2.50;;;4.70;99.90;;;;;;4917555;29;20147;-68
2023/12/15 01:05:50;;;;;;;4.47;2.95;;;4.60;99.90;;;;;;4896310;29;20075;-68
2023/12/15 01:08:22;;;;;;;4.80;2.83;;;4.60;99.90;;;;;;4914319;29;20042;-68
2023/12/15 01:10:54;;;;;;;4.38;3.17;;;4.60;99.90;;;;;;4910325;29;20139;-68
2023/12/15 01:13:21;;;;;;;5.82;3.10;;;4.60;99.90;;;;;;4914110;29;20067;-68
2023/12/15 01:15:53;;;;;;;5.70;3.30;;;4.60;99.90;;;;;;4916324;29;20048;-67
2023/12/15 01:18:25;;;;;;;4.38;2.95;;;4.60;99.90;;;;;;4913049;29;20064;-68
2023/12/15 01:20:57;;;;;;;4.55;3.17;;;4.60;99.90;;;;;;4913878;29;20513;-68
2023/12/15 01:23:28;;;;;;;5.00;4.05;;;4.60;99.90;;;;;;4907788;29;20091;-68
2023/12/15 01:26:01;;;;;;;6.25;3.75;;;4.60;99.90;;;;;;4911095;29;20429;-68
2023/12/15 01:28:33;;;;;;;8.13;4.38;;;4.60;99.90;;;;;;4921007;29;20046;-68
2023/12/15 01:31:05;;;;;;;7.35;4.60;;;4.50;99.90;;;;;;4910444;29;20422;-67
2023/12/15 01:33:37;;;;;;;6.57;4.45;;;4.60;99.90;;;;;;4924726;29;20048;-68
2023/12/15 01:36:09;;;;;;;7.18;4.78;;;4.60;99.90;;;;;;4895686;29;20063;-68
2023/12/15 01:38:40;;;;;;;7.13;4.70;;;4.50;99.90;;;;;;4912269;29;20047;-68
2023/12/15 01:41:12;;;;;;;7.97;4.93;;;4.50;99.90;;;;;;4913483;29;20076;-68
2023/12/15 01:43:45;;;;;;;7.03;4.85;;;4.50;99.90;;;;;;4909870;29;20517;-68
2023/12/15 01:46:16;;;;;;;8.00;5.50;;;4.50;99.90;;;;;;4911944;29;20041;-68
2023/12/15 01:48:49;;;;;;;7.30;4.85;;;4.50;99.90;;;;;;4910858;29;20050;-68
2023/12/15 01:51:17;;;;;;;8.82;5.55;;;4.50;99.90;;;;;;4914506;29;20036;-68
2023/12/15 01:53:48;;;;;;;10.52;6.05;;;4.40;99.90;;;;;;4917343;29;20623;-68
2023/12/15 01:56:21;;;;;;;9.77;6.25;;;4.50;99.90;;;;;;4916428;29;20072;-68
2023/12/15 01:58:52;;;;;;;10.90;6.75;;;4.40;99.90;;;;;;4913385;29;20047;-68
2023/12/15 02:01:24;;;;;;;8.90;6.40;;;4.40;99.90;;;;;;4921084;29;20067;-68
2023/12/15 02:03:56;;;;;;;10.40;6.95;;;4.40;99.90;;;;;;4917033;29;20043;-68
2023/12/15 02:06:28;;;;;;;10.23;7.47;;;4.30;99.90;;;;;;4914603;29;20071;-68
2023/12/15 02:08:59;;;;;;;10.57;6.88;;;4.30;99.90;;;;;;4915387;29;20059;-68
2023/12/15 02:11:26;;;;;;;9.95;7.10;;;4.30;99.90;;;;;;4914270;29;20068;-68
2023/12/15 02:13:58;;;;;;;8.65;6.30;;;4.20;99.90;;;;;;4900313;29;20051;-68
2023/12/15 02:16:30;;;;;;;10.82;7.53;;;4.20;99.90;;;;;;4916348;29;20075;-68
2023/12/15 02:18:57;;;;;;;11.23;8.00;;;4.10;99.90;;;;;;4927513;29;20060;-68
2023/12/15 02:21:29;;;;;;;10.10;6.45;;;4.10;99.90;;;;;;4912284;29;20044;-68
2023/12/15 02:23:56;;;;;;;12.23;6.78;;;4.10;99.90;;;;;;4914623;29;20044;-68
2023/12/15 02:26:28;;;;;;;12.45;7.30;;;4.10;99.90;;;;;;4915559;29;20076;-68
2023/12/15 02:29:00;;;;;;;8.40;5.75;;;4.10;99.90;;;;;;4914426;29;20072;-68
2023/12/15 02:31:32;;;;;;;9.85;7.22;;;4.10;99.90;;;;;;4916208;29;21492;-68
2023/12/15 02:34:04;;;;;;;10.48;6.43;;;4.10;99.90;;;;;;4913387;29;20063;-68
2023/12/15 02:36:35;;;;;;;9.95;6.57;;;4.00;99.90;;;;;;4914667;29;20052;-68
2023/12/15 02:39:07;;;;;;;10.98;7.50;;;4.00;99.90;;;;;;4915940;29;20052;-68
2023/12/15 02:41:39;;;;;;;10.82;6.63;;;4.00;99.90;;;;;;4916686;29;20133;-68
2023/12/15 02:44:06;;;;;;;13.05;7.50;;;4.00;99.90;;;;;;4898952;29;20059;-68
2023/12/15 02:46:38;;;;;;;11.27;6.50;;;3.90;99.90;;;;;;4911236;29;20043;-68
2023/12/15 02:49:10;;;;;;;11.73;6.70;;;4.00;99.90;;;;;;4912756;29;20053;-68
2023/12/15 02:51:37;;;;;;;12.18;7.45;;;3.90;99.90;;;;;;4916266;29;20032;-68
2023/12/15 02:54:09;;;;;;;9.90;6.43;;;3.90;99.90;;;;;;4914217;29;20502;-68
2023/12/15 02:56:36;;;;;;;10.68;6.45;;;3.90;99.90;;;;;;4916219;29;20059;-68
2023/12/15 02:59:08;;;;;;;10.43;6.57;;;3.80;99.90;;;;;;4915914;29;20051;-68
2023/12/15 03:01:40;;;;;;;10.68;6.25;;;3.80;99.90;;;;;;4903790;29;20044;-68
2023/12/15 03:04:11;;;;;;;13.27;8.43;;;3.70;99.90;;;;;;4908803;29;20051;-68
2023/12/15 03:06:43;;;;;;;10.65;6.78;;;3.70;99.90;;;;;;4899047;29;20501;-68
2023/12/15 03:09:15;;;;;;;12.57;7.40;;;3.70;99.90;;;;;;4918099;29;20063;-68
2023/12/15 03:11:47;;;;;;;14.05;7.57;;;3.70;99.90;;;;;;4914829;29;20044;-68
2023/12/15 03:14:19;;;;;;;11.90;7.45;;;3.70;99.90;;;;;;4914050;29;20413;-68
2023/12/15 03:16:51;;;;;;;12.75;8.00;;;3.70;99.90;;;;;;4911643;29;20040;-68
2023/12/15 03:19:23;;;;;;;15.48;8.52;;;3.70;99.90;;;;;;4913675;29;20602;-68
2023/12/15 03:21:55;;;;;;;12.20;8.10;;;3.60;99.90;;;;;;4914981;29;20119;-68
2023/12/15 03:24:27;;;;;;;14.50;8.68;;;3.50;99.90;;;;;;4915536;29;20065;-68
2023/12/15 03:26:58;;;;;;;15.75;8.77;;;3.50;99.90;;;;;;4925681;29;20414;-68
2023/12/15 03:29:30;;;;;;;16.25;8.52;;;3.50;99.90;;;;;;4926836;29;20049;-68
2023/12/15 03:32:02;;;;;;;14.20;8.00;;;3.50;99.90;;;;;;4912073;29;20054;-68
2023/12/15 03:34:29;;;;;;;13.15;7.82;;;3.50;99.90;;;;;;4912976;29;20577;-68
2023/12/15 03:37:01;;;;;;;16.67;9.35;;;3.50;99.90;;;;;;4899411;29;20055;-68
2023/12/15 03:39:33;;;;;;;14.88;9.05;;;3.50;99.90;;;;;;4915311;29;20040;-68
2023/12/15 03:42:07;;;;;;;13.68;7.43;;;3.50;99.90;;;;;;4911187;29;20059;-68
2023/12/15 03:44:39;;;;;;;17.23;9.70;;;3.50;99.90;;;;;;4904536;29;20558;-68
2023/12/15 03:47:11;;;;;;;16.35;9.07;;;3.50;99.90;;;;;;4913474;29;20136;-68
2023/12/15 03:49:38;;;;;;;15.27;9.52;;;3.50;99.90;;;;;;4913921;29;20036;-68
2023/12/15 03:52:10;;;;;;;15.57;9.25;;;3.50;99.90;;;;;;4909925;29;20053;-68
2023/12/15 03:54:42;;;;;;;13.43;8.80;;;3.50;99.90;;;;;;4910144;29;20044;-69
2023/12/15 03:57:14;;;;;;;17.48;9.60;;;3.50;99.90;;;;;;4911403;29;20390;-68
2023/12/15 03:59:45;;;;;;;15.57;8.93;;;3.50;99.90;;;;;;4915436;29;20123;-69
2023/12/15 04:02:20;;;;;;;15.55;8.93;;;3.50;99.90;;;;;;4916698;29;20137;-68
2023/12/15 04:04:52;;;;;;;14.35;8.40;;;3.50;99.90;;;;;;4912213;29;20675;-68
2023/12/15 04:07:23;;;;;;;15.35;8.13;;;3.50;99.90;;;;;;4913663;29;20055;-68
2023/12/15 04:09:56;;;;;;;14.80;8.73;;;3.50;99.90;;;;;;4912653;29;20032;-68
2023/12/15 04:12:28;;;;;;;13.68;7.38;;;3.50;99.90;;;;;;4915119;29;20046;-69
2023/12/15 04:14:55;;;;;;;13.63;8.02;;;3.40;99.90;;;;;;4913011;29;20040;-68
2023/12/15 04:17:26;;;;;;;12.65;7.70;;;3.30;99.90;;;;;;4914523;29;20048;-68
2023/12/15 04:19:53;;;;;;;15.10;8.25;;;3.30;99.90;;;;;;4911527;29;20505;-68
2023/12/15 04:22:22;;;;;;;14.07;8.65;;;3.20;99.90;;;;;;4925713;29;20058;-69
2023/12/15 04:24:54;;;;;;;14.10;8.70;;;3.20;99.90;;;;;;4922857;29;20135;-68
2023/12/15 04:27:26;;;;;;;15.32;9.20;;;3.20;99.90;;;;;;4912070;29;20037;-68
2023/12/15 04:29:52;;;;;;;15.63;8.80;;;3.10;99.90;;;;;;4913675;29;20058;-68
2023/12/15 04:32:24;;;;;;;14.25;7.97;;;3.10;99.90;;;;;;4911780;29;20037;-68
2023/12/15 04:34:56;;;;;;;14.38;8.35;;;3.10;99.90;;;;;;4914095;29;20048;-68
2023/12/15 04:37:28;;;;;;;12.98;7.60;;;3.10;99.90;;;;;;4914964;29;20040;-68
2023/12/15 04:40:00;;;;;;;13.93;7.57;;;3.10;99.90;;;;;;4912687;29;20048;-68
2023/12/15 04:42:32;;;;;;;15.45;8.48;;;3.10;99.90;;;;;;4913748;29;20664;-68
2023/12/15 04:45:09;;;;;;;12.18;7.28;;;3.10;99.90;;;;;;4913241;29;20441;-68
2023/12/15 04:47:40;;;;;;;16.55;7.78;;;3.10;99.90;;;;;;4912638;29;20048;-68
2023/12/15 04:50:12;;;;;;;10.93;7.05;;;3.10;99.90;;;;;;4913324;29;20032;-68
2023/12/15 04:52:44;;;;;;;11.38;6.70;;;3.10;99.90;;;;;;4909797;29;20120;-68
2023/12/15 04:55:16;;;;;;;15.48;7.82;;;3.10;99.90;;;;;;4911838;29;20040;-68
2023/12/15 04:57:48;;;;;;;12.25;7.38;;;3.10;99.90;;;;;;4914323;29;20521;-69
2023/12/15 05:00:20;;;;;;;11.32;6.88;;;3.10;99.90;;;;;;4912526;29;20048;-68
2023/12/15 05:02:47;;;;;;;13.70;7.13;;;3.10;99.90;;;;;;4908219;29;20075;-68
2023/12/15 05:05:19;;;;;;;11.95;7.00;;;3.10;99.90;;;;;;4914150;29;20055;-68
2023/12/15 05:07:46;;;;;;;12.90;6.97;;;3.00;99.90;;;;;;4914737;29;20044;-68
2023/12/15 05:10:13;;;;;;;13.90;6.78;;;3.10;99.90;;;;;;4912251;29;20044;-68
2023/12/15 05:12:45;;;;;;;11.93;7.53;;;3.10;99.90;;;;;;4915266;29;21516;-68
2023/12/15 05:15:17;;;;;;;11.68;6.82;;;3.00;99.90;;;;;;4926873;29;20131;-68
2023/12/15 05:17:44;;;;;;;13.85;7.40;;;3.00;99.90;;;;;;4909581;29;20079;-68
2023/12/15 05:20:16;;;;;;;12.15;6.82;;;3.10;99.90;;;;;;4913685;29;20424;-68
2023/12/15 05:22:49;;;;;;;12.07;7.03;;;3.10;99.90;;;;;;4910268;29;20040;-68
2023/12/15 05:25:21;;;;;;;10.83;6.77;;;3.10;99.90;;;;;;4913867;29;20489;-68
2023/12/15 05:27:48;;;;;;;11.38;6.40;;;3.10;99.90;;;;;;4917693;29;20044;-70
2023/12/15 05:30:20;;;;;;;10.68;6.75;;;3.10;99.90;;;;;;4916854;29;20036;-68
2023/12/15 05:32:55;;;;;;;12.82;7.03;;;3.10;99.90;;;;;;4900621;29;20060;-68
2023/12/15 05:35:26;;;;;;;11.07;6.38;;;3.10;99.90;;;;;;4917283;29;20505;-68
2023/12/15 05:37:59;;;;;;;11.95;6.68;;;3.10;99.90;;;;;;4915142;29;20111;-68
2023/12/15 05:40:26;;;;;;;11.02;6.13;;;3.10;99.90;;;;;;4919813;29;20044;-69
2023/12/15 05:42:58;;;;;;;11.55;6.78;;;3.10;99.90;;;;;;4916095;29;20040;-68
2023/12/15 05:45:25;;;;;;;9.98;6.13;;;3.10;99.90;;;;;;4913803;29;20044;-68
2023/12/15 05:47:57;;;;;;;9.98;5.78;;;3.00;99.90;;;;;;4915134;29;20043;-68
2023/12/15 05:50:28;;;;;;;9.68;6.15;;;3.00;99.90;;;;;;4896627;29;20067;-68
2023/12/15 05:53:00;;;;;;;9.32;5.65;;;2.90;99.90;;;;;;4924781;29;20045;-68
2023/12/15 05:55:27;;;;;;;9.85;5.43;;;2.90;99.90;;;;;;4916720;29;20043;-68
2023/12/15 05:58:00;;;;;;;9.65;5.47;;;2.90;99.90;;;;;;4917888;29;20048;-68
2023/12/15 06:00:27;;;;;;;6.68;4.32;;;2.90;99.90;;;;;;4914049;29;20127;-68
2023/12/15 06:02:59;;;;;;;9.13;4.68;;;2.90;99.90;;;;;;4916672;29;20052;-68
2023/12/15 06:05:34;;;;;;;8.85;5.38;;;2.80;99.90;;;;;;4916170;29;20044;-68
2023/12/15 06:08:06;;;;;;;8.40;5.22;;;2.80;99.90;;;;;;4898164;29;20048;-69
2023/12/15 06:10:38;;;;;;;10.20;5.93;;;2.80;99.90;;;;;;4917805;29;20052;-68
2023/12/15 06:13:10;;;;;;;11.75;6.00;;;2.80;99.90;;;;;;4917571;29;20600;-68
2023/12/15 06:15:43;;;;;;;10.27;5.68;;;2.70;99.90;;;;;;4911639;29;20075;-68
2023/12/15 06:18:15;;;;;;;9.10;5.70;;;2.80;99.90;;;;;;4917027;29;20493;-67
2023/12/15 06:20:47;;;;;;;9.48;5.32;;;2.70;99.90;;;;;;4914030;29;20051;-68
2023/12/15 06:23:20;;;;;;;9.00;5.10;;;2.70;99.90;;;;;;4914367;29;20071;-67
2023/12/15 06:25:52;;;;;;;11.73;6.20;;;2.70;99.90;;;;;;4917074;29;20533;-67
2023/12/15 06:28:24;;;;;;;9.88;5.18;;;2.80;99.90;;;;;;4915715;29;20130;-67
2023/12/15 06:30:56;;;;;;;11.40;5.65;;;2.80;99.90;;;;;;4916819;29;20040;-67
2023/12/15 06:33:28;;;;;;;13.93;6.15;;;2.80;99.90;;;;;;4914877;29;20044;-67
2023/12/15 06:35:59;;;;;;;11.30;5.35;;;2.80;99.90;;;;;;4915933;29;20048;-68
2023/12/15 06:38:31;;;;;;;11.45;6.15;;;2.80;99.90;;;;;;4914621;29;20541;-68
2023/12/15 06:41:05;;;;;;;10.02;5.88;;;2.80;99.90;;;;;;4916815;29;20064;-68
2023/12/15 06:43:41;;;;;;;10.00;5.72;;;2.80;99.90;;;;;;4915349;29;20058;-68
2023/12/15 06:46:08;;;;;;;10.43;6.88;;;2.90;99.90;;;;;;4916743;29;20054;-68
2023/12/15 06:48:36;;;;;;;10.27;5.45;;;2.90;99.90;;;;;;4915672;29;20043;-67
2023/12/15 06:51:04;;;;;;;11.45;6.75;;;2.90;99.90;;;;;;4907339;29;20134;-67
2023/12/15 06:53:36;;;;;;;11.10;6.18;;;2.80;99.90;;;;;;4916340;29;20052;-68
2023/12/15 06:56:08;;;;;;;12.40;6.55;;;2.80;99.90;;;;;;4913075;29;20060;-68
2023/12/15 06:58:40;;;;;;;9.40;6.00;;;2.80;99.90;;;;;;4928087;29;20040;-68
2023/12/15 07:01:13;;;;;;;10.75;6.68;;;2.80;99.90;;;;;;4931582;29;20060;-68
2023/12/15 07:03:40;;;;;;;10.05;6.30;;;2.80;99.90;;;;;;4917110;29;20040;-68
2023/12/15 07:06:12;;;;;;;9.82;5.88;;;2.80;99.90;;;;;;4915113;29;20070;-68
2023/12/15 07:08:44;;;;;;;9.77;6.20;;;2.90;99.90;;;;;;4916460;29;20040;-68
2023/12/15 07:11:11;;;;;;;10.55;6.03;;;2.90;99.90;;;;;;4916608;29;20046;-68
2023/12/15 07:13:43;;;;;;;12.45;7.07;;;2.90;99.90;;;;;;4916555;29;20043;-68
2023/12/15 07:16:15;;;;;;;11.50;6.55;;;2.90;99.90;;;;;;4916448;29;20416;-68
2023/12/15 07:18:47;;;;;;;11.98;7.45;;;2.90;99.90;;;;;;4914162;29;20052;-68
2023/12/15 07:21:19;;;;;;;11.02;6.40;;;2.90;99.90;;;;;;4916446;29;20048;-68
2023/12/15 07:23:51;;;;;;;10.32;6.35;;;2.80;99.90;;;;;;4915184;29;20050;-68
2023/12/15 07:26:17;;;;;;;10.55;6.32;;;2.80;99.90;;;;;;4915579;29;20520;-68
2023/12/15 07:28:49;;;;;;;12.15;6.45;;;2.80;99.90;;;;;;4916303;29;20428;-68
2023/12/15 07:31:21;;;;;;;13.38;6.90;;;2.80;99.90;;;;;;4914993;29;20631;-67
2023/12/15 07:33:48;;;;;;;12.05;6.63;;;2.80;99.90;;;;;;4913721;29;20423;-68
2023/12/15 07:36:20;;;;;;;10.93;6.45;;;2.80;99.90;;;;;;4916313;29;20048;-68
2023/12/15 07:38:52;;;;;;;9.25;5.90;;;2.90;99.90;;;;;;4916137;29;20043;-68
2023/12/15 07:41:23;;;;;;;10.90;6.38;;;2.90;99.90;;;;;;4911872;29;20138;-68
2023/12/15 07:43:55;;;;;;;12.38;6.28;;;2.90;99.90;;;;;;4915371;29;20052;-67
2023/12/15 07:46:22;;;;;;;10.73;6.32;;;2.90;99.90;;;;;;4916104;29;20143;-68
2023/12/15 07:48:55;;;;;;;9.68;6.95;;;2.90;99.90;;;;;;4914131;29;20051;-68
2023/12/15 07:51:26;;;;;;;12.20;7.07;;;2.90;99.90;;;;;;4912860;29;20049;-68
2023/12/15 07:53:53;;;;;;;11.68;6.90;;;3.00;99.90;;;;;;4915706;29;20524;-67
2023/12/15 07:56:27;;;;;;;11.80;6.75;;;3.00;99.90;;;;;;4905306;29;20520;-67
2023/12/15 07:58:55;;;;;;;12.60;7.43;;;3.00;99.90;;;;;;4920145;29;20143;-68
2023/12/15 08:01:27;;;;;;;8.55;5.57;;;3.00;99.90;;;;;;4899281;29;20071;-68
2023/12/15 08:03:59;;;;;;;8.50;5.55;;;3.00;99.90;;;;;;4907245;29;20078;-68
2023/12/15 08:06:31;;;;;;;9.05;6.00;;;3.00;99.90;;;;;;4912834;29;20062;-68
2023/12/15 08:08:58;;;;;;;14.05;6.43;;;3.00;99.90;;;;;;4914897;29;20119;-68
2023/12/15 08:11:30;;;;;;;12.65;7.15;;;3.00;99.90;;;;;;4915669;29;20044;-68
2023/12/15 08:13:56;;;;;;;14.48;7.30;;;3.00;99.90;;;;;;4919307;29;20049;-68
2023/12/15 08:16:30;;;;;;;11.40;7.22;;;3.00;99.90;;;;;;4913902;29;20044;-68
2023/12/15 08:18:57;;;;;;;11.65;6.75;;;3.00;99.90;;;;;;4908410;29;20135;-68
2023/12/15 08:21:24;;;;;;;12.35;6.80;;;3.00;99.90;;;;;;4913880;29;20104;-68
2023/12/15 08:23:52;;;;;;;11.65;5.68;;;3.00;99.90;;;;;;4914801;29;20540;-68
2023/12/15 08:26:28;;;;;;;12.48;7.50;;;3.00;99.90;;;;;;4915029;29;20072;-68
2023/12/15 08:29:00;;;;;;;11.90;6.45;;;3.00;99.90;;;;;;4913665;29;20048;-68
2023/12/15 08:31:32;;;;;;;10.32;6.47;;;3.10;99.90;;;;;;4899043;29;20131;-68
2023/12/15 08:34:04;;;;;;;17.52;7.88;;;3.20;99.90;;;;;;4914867;29;20082;-68
2023/12/15 08:36:31;;;;;;;14.05;6.45;;;3.20;99.90;;;;;;4897847;29;20044;-68
2023/12/15 08:39:03;;;;;;;12.77;6.53;;;3.20;99.90;;;;;;4913597;29;20048;-68
2023/12/15 08:41:35;;;;;;;10.70;6.30;;;3.20;99.90;;;;;;4914840;29;20140;-68
2023/12/15 08:44:07;;;;;;;9.98;6.03;;;3.20;99.90;;;;;;4911115;29;20055;-68
2023/12/15 08:46:35;;;;;;;8.38;4.95;;;3.20;99.90;;;;;;4925307;29;20040;-68
2023/12/15 08:49:07;;;;;;;8.97;5.43;;;3.30;99.90;;;;;;4911898;29;20125;-68
2023/12/15 08:51:38;;;;;;;10.07;6.28;;;3.40;99.90;;;;;;4906029;29;20410;-68
2023/12/15 08:54:06;;;;;;;9.10;5.55;;;3.50;99.90;;;;;;4914724;29;20099;-68
2023/12/15 08:56:38;;;;;;;8.40;5.30;;;3.60;99.90;;;;;;4913531;29;20039;-68
2023/12/15 08:59:09;;;;;;;8.82;5.38;;;3.60;99.90;;;;;;4913030;29;20698;-68
2023/12/15 09:01:37;;;;;;;12.75;6.15;;;3.60;99.90;;;;;;4915243;29;20044;-68
2023/12/15 09:04:09;;;;;;;8.77;5.15;;;3.70;99.90;;;;;;4913390;29;20056;-68
2023/12/15 09:06:36;;;;;;;7.57;5.03;;;3.70;99.90;;;;;;4914702;29;20076;-68
2023/12/15 09:09:10;;;;;;;7.93;5.28;;;3.70;99.90;;;;;;4895660;29;20048;-68
2023/12/15 09:11:37;;;;;;;8.05;4.80;;;3.70;99.90;;;;;;4914613;29;20139;-68
2023/12/15 09:14:04;;;;;;;8.52;4.80;;;3.80;99.90;;;;;;4914226;29;20032;-68
2023/12/15 09:16:36;;;;;;;7.90;4.85;;;3.80;99.90;;;;;;4909357;29;20044;-68
2023/12/15 09:19:03;;;;;;;8.68;5.45;;;3.80;99.90;;;;;;4914643;29;20044;-68
2023/12/15 09:21:35;;;;;;;8.40;4.90;;;3.80;99.90;;;;;;4923199;29;20056;-68
2023/12/15 09:24:02;;;;;;;7.60;5.10;;;3.80;99.90;;;;;;4914373;29;20075;-68
2023/12/15 09:26:34;;;;;;;8.95;5.53;;;3.70;99.90;;;;;;4910783;29;20119;-68
2023/12/15 09:29:06;;;;;;;8.00;4.65;;;3.70;99.90;;;;;;4914364;29;20056;-68
2023/12/15 09:31:39;;;;;;;9.27;5.28;;;3.80;99.90;;;;;;4913336;29;20390;-67
2023/12/15 09:34:11;;;;;;;11.13;5.22;;;3.80;99.90;;;;;;4914101;29;20052;-67
2023/12/15 09:36:43;;;;;;;8.35;4.43;;;3.80;99.90;;;;;;4914491;29;20576;-68
2023/12/15 09:39:15;;;;;;;12.77;5.00;;;3.80;99.90;;;;;;4914460;29;20095;-68
2023/12/15 09:41:47;;;;;;;10.48;5.18;;;3.90;99.90;;;;;;4914610;29;20127;-68
2023/12/15 09:44:15;;;;;;;7.90;4.63;;;3.90;99.90;;;;;;4914092;29;20062;-68
2023/12/15 09:46:47;;;;;;;7.93;5.13;;;3.90;99.90;;;;;;4895592;29;20398;-68
2023/12/15 09:49:23;;;;;;;9.27;4.82;;;3.90;99.90;;;;;;4912785;29;20532;-68
2023/12/15 09:51:58;;;;;;;7.28;4.55;;;3.90;99.90;;;;;;4910884;29;20036;-68
2023/12/15 09:54:25;;;;;;;6.75;4.95;;;4.00;99.90;;;;;;4912472;29;20060;-68
2023/12/15 09:56:51;;;;;;;9.35;5.47;;;3.90;99.90;;;;;;4914162;29;20048;-68
2023/12/15 09:59:23;;;;;;;7.93;5.00;;;3.90;99.90;;;;;;4912892;29;21136;-68
2023/12/15 10:01:50;;;;;;;7.43;4.95;;;3.90;99.90;;;;;;4913536;29;20465;-68
2023/12/15 10:04:22;;;;;;;9.38;6.13;;;3.90;99.90;;;;;;4924717;29;20117;-68
2023/12/15 10:06:49;;;;;;;8.98;5.70;;;3.90;99.90;;;;;;4910664;29;20055;-68
2023/12/15 10:09:16;;;;;;;8.25;5.03;;;3.90;99.90;;;;;;4912560;29;20135;-68
2023/12/15 10:11:48;;;;;;;9.65;5.03;;;3.90;99.90;;;;;;4912954;29;20079;-68
2023/12/15 10:14:20;;;;;;;8.23;5.15;;;4.00;99.90;;;;;;4898895;29;20483;-68
2023/12/15 10:16:53;;;;;;;9.20;5.38;;;4.10;99.90;;;;;;4913597;29;20594;-68
2023/12/15 10:19:25;;;;;;;10.27;5.57;;;4.10;99.90;;;;;;4901188;29;20509;-68
2023/12/15 10:21:56;;;;;;;7.78;4.88;;;4.20;99.90;;;;;;4913786;29;20052;-68
2023/12/15 10:24:29;;;;;;;8.52;5.13;;;4.30;99.90;;;;;;4915338;29;20383;-68
2023/12/15 10:27:02;;;;;;;9.27;5.88;;;4.30;99.90;;;;;;4917181;29;20055;-68
2023/12/15 10:29:37;;;;;;;;;;;4.40;99.90;;;;;;4912656;29;20047;-68
2023/12/15 10:32:10;;;;;;;9.35;5.82;;;4.50;99.90;;;;;;4929157;29;20011;-68
2023/12/15 10:34:38;;;;;;;10.60;6.72;;;4.50;99.90;;;;;;4916619;29;20044;-68
2023/12/15 10:37:10;;;;;;;9.03;5.43;;;4.50;99.90;;;;;;4916291;29;20045;-68
2023/12/15 10:39:42;;;;;;;8.40;5.55;;;4.50;99.90;;;;;;4906622;29;20308;-68
2023/12/15 10:42:09;;;;;;;9.30;6.10;;;4.50;99.90;;;;;;4917245;29;20079;-68
2023/12/15 10:44:42;;;;;;;8.52;5.35;;;4.50;99.90;;;;;;4913777;29;20040;-68
2023/12/15 10:47:15;;;;;;;9.07;5.80;;;4.60;99.90;;;;;;4903955;29;20135;-68
2023/12/15 10:49:47;;;;;;;8.98;5.53;;;4.50;99.90;;;;;;4906959;29;20040;-69
2023/12/15 10:52:21;;;;;;;9.63;5.70;;;4.50;99.90;;;;;;4915666;29;20050;-69
2023/12/15 10:54:50;;;;;;;8.23;5.65;;;4.50;99.90;;;;;;4916894;29;20099;-68
2023/12/15 10:57:22;;;;;;;9.43;5.55;;;4.60;99.90;;;;;;4899215;29;20413;-69
2023/12/15 10:59:54;;;;;;;11.93;6.78;;;4.60;99.90;;;;;;4914451;29;20080;-69
2023/12/15 11:02:23;;;;;;;11.95;6.30;;;4.60;99.90;;;;;;4916646;29;20546;-69
2023/12/15 11:04:51;;;;;;;9.35;6.38;;;4.60;99.90;;;;;;4909930;29;20051;-69
2023/12/15 11:07:24;;;;;;;13.60;6.80;;;4.60;99.90;;;;;;4918266;29;20104;-69
2023/12/15 11:09:59;;;;;;;10.15;5.80;;;4.60;99.90;;;;;;4915616;29;20044;-68
2023/12/15 11:12:41;;;;;;;11.27;6.22;;;4.60;99.90;;;;;;4914981;29;20048;-69
2023/12/15 11:15:10;;;;;;;10.63;7.70;;;4.60;99.90;;;;;;4913233;29;20076;-69
2023/12/15 11:17:48;;;;;;;10.57;6.15;;;4.60;99.90;;;;;;4917638;29;20047;-69
2023/12/15 11:20:20;;;;;;;10.43;6.15;;;4.60;99.90;;;;;;4913941;29;20048;-69
2023/12/15 11:23:07;;;;;;;11.13;5.85;;;4.70;99.90;;;;;;4917631;29;20056;-69
2023/12/15 11:25:51;;;;;;;10.70;7.07;;;4.70;99.90;;;;;;4914968;29;20072;-68
2023/12/15 11:28:24;;;;;;;10.00;6.32;;;4.70;99.90;;;;;;4916272;29;20150;-68
2023/12/15 11:30:56;;;;;;;10.52;6.07;;;4.70;99.90;;;;;;4912012;29;20044;-69
2023/12/15 11:33:36;;;;;;;8.07;5.50;;;4.70;99.90;;;;;;4916269;29;20421;-69
2023/12/15 11:36:12;;;;;;;9.00;5.68;;;4.70;99.90;;;;;;4916352;29;20072;-69
2023/12/15 11:38:39;;;;;;;9.32;6.00;;;4.70;99.90;;;;;;4916515;29;20073;-69
2023/12/15 11:41:11;;;;;;;8.40;5.78;;;4.70;99.90;;;;;;4917448;29;20068;-69
2023/12/15 11:43:43;;;;;;;9.38;6.90;;;4.70;99.90;;;;;;4907978;29;20068;-69
2023/12/15 11:46:15;;;;;;;12.40;5.90;;;4.80;99.90;;;;;;4910988;29;20048;-69
2023/12/15 11:48:43;;;;;;;8.68;5.70;;;4.80;99.90;;;;;;4913933;29;20047;-69
2023/12/15 11:51:09;;;;;;;11.30;6.85;;;4.80;99.90;;;;;;4915042;29;20050;-69
2023/12/15 11:53:44;;;;;;;8.15;6.05;;;4.90;99.90;;;;;;4913145;29;20037;-67
2023/12/15 11:56:18;;;;;;;9.18;6.15;;;4.90;99.90;;;;;;4915944;29;20049;-69
2023/12/15 11:58:49;;;;;;;10.93;6.35;;;4.90;99.90;;;;;;4913290;29;20063;-68
2023/12/15 12:01:22;;;;;;;10.32;6.25;;;4.90;99.90;;;;;;4913316;29;20063;-68
2023/12/15 12:03:54;;;;;;;9.27;5.72;;;5.00;99.90;;;;;;4915302;29;20056;-68
2023/12/15 12:06:21;;;;;;;9.27;5.90;;;5.00;99.90;;;;;;4924789;29;20132;-68
2023/12/15 12:08:53;;;;;;;10.40;6.28;;;5.00;99.90;;;;;;4915038;29;20421;-68
2023/12/15 12:11:25;;;;;;;16.52;8.00;;;5.10;99.90;;;;;;4914010;29;20071;-68
2023/12/15 12:14:00;;;;;;;12.10;7.60;;;5.10;99.90;;;;;;4912898;29;20135;-68
2023/12/15 12:16:27;;;;;;;10.48;6.75;;;5.20;99.90;;;;;;4927531;29;20096;-68
2023/12/15 12:19:00;;;;;;;10.68;6.50;;;5.20;99.90;;;;;;4913994;29;20052;-68
2023/12/15 12:21:32;;;;;;;9.83;5.60;;;5.30;99.90;;;;;;4915555;29;20112;-68
2023/12/15 12:24:00;;;;;;;8.88;5.97;;;5.40;99.90;;;;;;4914808;29;20047;-68
2023/12/15 12:26:32;;;;;;;7.90;5.13;;;5.40;99.90;;;;;;4915475;29;20069;-68
2023/12/15 12:29:04;;;;;;;9.65;5.57;;;5.40;99.90;;;;;;4911383;29;20040;-69
2023/12/15 12:31:37;;;;;;;10.35;6.78;;;5.40;99.90;;;;;;4910739;29;20517;-69
2023/12/15 12:34:09;;;;;;;12.02;6.00;;;5.40;99.90;;;;;;4911088;29;20437;-69
2023/12/15 12:36:41;;;;;;;9.90;5.50;;;5.40;99.90;;;;;;4896981;29;20040;-68
2023/12/15 12:39:13;;;;;;;8.77;5.75;;;5.50;99.90;;;;;;4930424;29;20424;-68
2023/12/15 12:41:40;;;;;;;8.45;5.65;;;5.40;99.90;;;;;;4913844;29;20052;-68
2023/12/15 12:44:12;;;;;;;10.07;6.13;;;5.40;99.90;;;;;;4914853;29;20043;-69
2023/12/15 12:46:44;;;;;;;9.95;5.88;;;5.30;99.90;;;;;;4909842;29;20122;-69
2023/12/15 12:49:16;;;;;;;8.48;5.40;;;5.40;99.90;;;;;;4907213;29;20043;-69
2023/12/15 12:51:48;;;;;;;15.30;6.60;;;5.30;99.90;;;;;;4926493;29;20134;-68
2023/12/15 12:54:20;;;;;;;11.40;6.20;;;5.40;99.90;;;;;;4909087;29;20128;-68
2023/12/15 12:56:52;;;;;;;12.25;6.45;;;5.40;99.90;;;;;;4906681;29;20048;-69
2023/12/15 12:59:24;;;;;;;11.30;5.82;;;5.40;99.90;;;;;;4911787;29;20044;-68
2023/12/15 13:01:59;;;;;;;9.90;5.97;;;5.40;99.90;;;;;;4912737;29;20044;-68
2023/12/15 13:04:32;;;;;;;9.20;6.15;;;5.40;99.90;;;;;;4910991;29;20063;-68
2023/12/15 13:07:03;;;;;;;8.35;5.93;;;5.40;99.90;;;;;;4911843;29;20051;-68
2023/12/15 13:09:35;;;;;;;10.27;5.60;;;5.50;99.90;;;;;;4910048;29;20045;-68